createdAt,value
2023-02-11T00:01:45.335Z,-0.65
2023-02-11T00:05:07.167Z,-1.05
2023-02-11T00:08:28.847Z,-1.02
2023-02-11T00:11:50.393Z,-1.23
2023-02-11T00:15:14.067Z,-1.26
2023-02-11T00:18:36.464Z,-1.08
2023-02-11T00:21:58.081Z,-1.22
2023-02-11T00:25:19.730Z,-1.28
2023-02-11T00:28:41.827Z,-1.22
2023-02-11T00:32:05.323Z,-1.29
2023-02-11T00:35:26.966Z,-1.44
2023-02-11T00:38:50.018Z,-1.49
2023-02-11T00:42:14.846Z,-1.25
2023-02-11T00:45:36.461Z,-1.20
2023-02-11T00:48:58.103Z,-1.32
2023-02-11T00:52:22.243Z,-1.22
2023-02-11T00:55:46.920Z,-1.74
2023-02-11T00:59:09.197Z,-1.64
2023-02-11T01:02:30.864Z,-1.82
2023-02-11T01:05:56.096Z,-1.75
2023-02-11T01:09:17.899Z,-1.57
2023-02-11T01:12:42.664Z,-1.49
2023-02-11T01:16:07.725Z,-1.36
2023-02-11T01:19:29.403Z,-1.53
2023-02-11T01:22:51.068Z,-1.78
2023-02-11T01:26:15.856Z,-1.94
2023-02-11T01:29:37.443Z,-1.78
2023-02-11T01:33:01.212Z,-1.88
2023-02-11T01:36:22.873Z,-1.91
2023-02-11T01:39:49.126Z,-1.70
2023-02-11T01:43:12.027Z,-1.75
2023-02-11T01:46:35.517Z,-1.95
2023-02-11T01:49:59.343Z,-1.78
2023-02-11T01:53:40.123Z,-1.75
2023-02-11T01:57:21.972Z,-1.92
2023-02-11T02:00:44.050Z,-1.88
2023-02-11T02:04:07.416Z,-1.70
2023-02-11T02:07:36.027Z,-1.66
2023-02-11T02:11:00.902Z,-1.58
2023-02-11T02:14:22.505Z,-1.54
2023-02-11T02:18:07.223Z,-1.63
2023-02-11T02:21:58.249Z,-1.78
2023-02-11T02:25:48.722Z,-1.84
2023-02-11T02:29:10.478Z,-1.99
2023-02-11T02:32:56.731Z,-1.84
2023-02-11T02:36:40.582Z,-1.98
2023-02-11T02:40:09.957Z,-1.88
2023-02-11T02:43:32.848Z,-2.40
2023-02-11T02:46:59.867Z,-2.42
2023-02-11T02:50:30.350Z,-2.39
2023-02-11T02:53:57.815Z,-2.42
2023-02-11T02:57:28.108Z,-2.43
2023-02-11T03:01:08.211Z,-2.26
2023-02-11T03:04:35.946Z,-1.92
2023-02-11T03:08:01.401Z,-1.84
2023-02-11T03:11:24.431Z,-2.12
2023-02-11T03:14:51.373Z,-2.54
2023-02-11T03:18:17.054Z,-2.80
2023-02-11T03:21:42.755Z,-2.71
2023-02-11T03:25:04.985Z,-2.83
2023-02-11T03:28:35.456Z,-2.47
2023-02-11T03:32:16.126Z,-2.16
2023-02-11T03:35:56.299Z,-2.32
2023-02-11T03:40:02.475Z,-2.09
2023-02-11T03:43:38.910Z,-2.05
2023-02-11T03:47:02.002Z,-2.05
2023-02-11T03:50:28.132Z,-2.08
2023-02-11T03:53:52.389Z,-2.12
2023-02-11T03:57:13.975Z,-1.97
2023-02-11T04:00:39.533Z,-2.03
2023-02-11T04:04:01.420Z,-1.88
2023-02-11T04:07:23.598Z,-1.92
2023-02-11T04:10:52.524Z,-1.98
2023-02-11T04:14:14.158Z,-2.16
2023-02-11T04:17:38.076Z,-2.08
2023-02-11T04:20:59.685Z,-2.32
2023-02-11T04:24:23.475Z,-2.57
2023-02-11T04:27:45.043Z,-2.61
2023-02-11T04:31:12.139Z,-2.73
2023-02-11T04:34:36.084Z,-2.61
2023-02-11T04:38:00.141Z,-2.44
2023-02-11T04:41:23.954Z,-2.50
2023-02-11T04:44:45.618Z,-2.67
2023-02-11T04:48:07.243Z,-2.99
2023-02-11T04:51:28.875Z,-2.81
2023-02-11T04:54:52.958Z,-3.02
2023-02-11T04:58:14.600Z,-2.91
2023-02-11T05:01:36.485Z,-2.83
2023-02-11T05:05:00.609Z,-3.09
2023-02-11T05:08:27.038Z,-3.13
2023-02-11T05:11:48.941Z,-3.01
2023-02-11T05:15:10.553Z,-2.77
2023-02-11T05:18:32.144Z,-2.98
2023-02-11T05:22:02.647Z,-2.96
2023-02-11T05:25:27.378Z,-2.80
2023-02-11T05:28:51.446Z,-3.19
2023-02-11T05:32:15.308Z,-3.44
2023-02-11T05:35:39.378Z,-3.61
2023-02-11T05:39:04.037Z,-3.73
2023-02-11T05:42:25.677Z,-3.31
2023-02-11T05:45:50.230Z,-3.01
2023-02-11T05:49:12.257Z,-2.89
2023-02-11T05:52:33.869Z,-2.84
2023-02-11T05:55:55.676Z,-2.95
2023-02-11T05:59:19.861Z,-3.09
2023-02-11T06:02:43.813Z,-2.89
2023-02-11T06:06:10.881Z,-3.09
2023-02-11T06:09:32.468Z,-2.95
2023-02-11T06:12:56.422Z,-2.81
2023-02-11T06:16:20.374Z,-2.96
2023-02-11T06:19:42.102Z,-2.87
2023-02-11T06:23:03.698Z,-2.84
2023-02-11T06:26:25.665Z,-2.81
2023-02-11T06:29:50.032Z,-2.77
2023-02-11T06:33:11.650Z,-2.70
2023-02-11T06:36:36.303Z,-2.47
2023-02-11T06:39:57.890Z,-2.12
2023-02-11T06:43:21.649Z,-1.91
2023-02-11T06:46:45.396Z,-1.85
2023-02-11T06:50:11.163Z,-1.88
2023-02-11T06:53:41.515Z,-1.88
2023-02-11T06:57:03.058Z,-1.82
2023-02-11T07:00:24.819Z,-1.75
2023-02-11T07:03:46.991Z,-1.66
2023-02-11T07:07:08.896Z,-1.53
2023-02-11T07:10:30.506Z,-1.42
2023-02-11T07:13:54.623Z,-1.20
2023-02-11T07:17:19.195Z,-1.32
2023-02-11T07:20:43.149Z,-1.39
2023-02-11T07:24:11.082Z,-1.37
2023-02-11T07:27:33.244Z,-1.26
2023-02-11T07:30:57.436Z,-1.05
2023-02-11T07:34:19.145Z,-0.87
2023-02-11T07:37:43.644Z,-0.62
2023-02-11T07:41:07.666Z,-0.34
2023-02-11T07:44:29.295Z,0.02
2023-02-11T07:47:50.904Z,0.95
2023-02-11T07:51:17.261Z,1.42
2023-02-11T07:54:38.842Z,1.93
2023-02-11T07:58:03.931Z,2.14
2023-02-11T08:01:28.778Z,2.31
2023-02-11T08:04:50.797Z,2.17
2023-02-11T08:08:12.648Z,1.79
2023-02-11T08:11:34.250Z,1.32
2023-02-11T08:14:56.435Z,1.22
2023-02-11T08:18:20.577Z,1.17
2023-02-11T08:21:44.971Z,1.04
2023-02-11T08:25:09.123Z,1.17
2023-02-11T08:28:30.874Z,1.29
2023-02-11T08:31:52.600Z,1.31
2023-02-11T08:35:17.007Z,1.34
2023-02-11T08:38:41.061Z,1.34
2023-02-11T08:42:02.707Z,1.35
2023-02-11T08:45:27.307Z,1.35
2023-02-11T08:48:48.924Z,1.39
2023-02-11T08:52:10.606Z,1.62
2023-02-11T08:55:32.226Z,2.42
2023-02-11T08:58:54.708Z,3.21
2023-02-11T09:02:21.433Z,3.87
2023-02-11T09:05:47.921Z,4.37
2023-02-11T09:09:13.781Z,4.68
2023-02-11T09:12:40.182Z,5.12
2023-02-11T09:16:05.954Z,5.16
2023-02-11T09:19:29.934Z,5.30
2023-02-11T09:22:51.573Z,5.54
2023-02-11T09:26:32.715Z,5.89
2023-02-11T09:29:54.326Z,6.41
2023-02-11T09:33:18.210Z,6.91
2023-02-11T09:36:43.224Z,6.93
2023-02-11T09:40:08.383Z,7.19
2023-02-11T09:43:46.966Z,7.19
2023-02-11T09:47:35.904Z,6.82
2023-02-11T09:51:04.347Z,6.68
2023-02-11T09:54:35.430Z,7.64
2023-02-11T09:57:58.193Z,7.30
2023-02-11T10:01:41.062Z,7.40
2023-02-11T10:05:32.100Z,7.15
2023-02-11T10:09:07.997Z,6.88
2023-02-11T10:12:38.647Z,6.95
2023-02-11T10:16:22.666Z,7.40
2023-02-11T10:20:11.596Z,7.93
2023-02-11T10:23:40.163Z,8.53
2023-02-11T10:27:08.690Z,8.63
2023-02-11T10:30:40.951Z,8.50
2023-02-11T10:34:13.748Z,9.01
2023-02-11T10:37:35.324Z,9.11
2023-02-11T10:40:56.920Z,9.43
2023-02-11T10:44:24.374Z,9.37
2023-02-11T10:47:46.077Z,9.56
2023-02-11T10:51:25.303Z,8.79
2023-02-11T10:54:59.070Z,9.35
2023-02-11T10:58:25.679Z,10.42
2023-02-11T11:01:51.798Z,10.63
2023-02-11T11:05:22.597Z,9.80
2023-02-11T11:08:49.804Z,8.99
2023-02-11T11:12:31.589Z,8.19
2023-02-11T11:16:13.804Z,8.47
2023-02-11T11:19:39.191Z,8.84
2023-02-11T11:23:22.809Z,8.98
2023-02-11T11:26:54.262Z,9.40
2023-02-11T11:30:17.053Z,9.91
2023-02-11T11:33:45.132Z,10.94
2023-02-11T11:37:28.856Z,11.87
2023-02-11T11:41:14.561Z,12.68
2023-02-11T11:44:38.278Z,13.98
2023-02-11T11:48:19.421Z,13.23
2023-02-11T11:51:43.669Z,13.24
2023-02-11T11:55:20.749Z,11.80
2023-02-11T11:58:44.904Z,12.82
2023-02-11T12:02:40.537Z,12.40
2023-02-11T12:06:23.815Z,12.66
2023-02-11T12:10:24.104Z,12.53
2023-02-11T12:13:57.799Z,11.67
2023-02-11T12:17:25.939Z,12.37
2023-02-11T12:21:09.339Z,11.25
2023-02-11T12:24:52.250Z,10.79
2023-02-11T12:28:35.451Z,11.28
2023-02-11T12:32:36.490Z,12.88
2023-02-11T12:36:22.594Z,14.50
2023-02-11T12:39:50.024Z,15.02
2023-02-11T12:43:24.911Z,13.99
2023-02-11T12:47:27.484Z,12.76
2023-02-11T12:50:59.201Z,12.90
2023-02-11T12:54:32.696Z,12.82
2023-02-11T12:58:00.013Z,14.01
2023-02-11T13:01:27.309Z,14.14
2023-02-11T13:04:59.905Z,14.77
2023-02-11T13:08:51.258Z,14.30
2023-02-11T13:12:32.852Z,15.32
2023-02-11T13:16:07.853Z,14.65
2023-02-11T13:19:40.751Z,14.43
2023-02-11T13:23:19.518Z,13.96
2023-02-11T13:26:57.716Z,13.28
2023-02-11T13:30:28.333Z,12.65
2023-02-11T13:33:50.023Z,11.21
2023-02-11T13:37:37.098Z,11.36
2023-02-11T13:41:06.838Z,11.21
2023-02-11T13:44:28.844Z,10.31
2023-02-11T13:47:59.872Z,9.99
2023-02-11T13:51:44.936Z,9.83
2023-02-11T13:55:22.557Z,9.43
2023-02-11T13:58:51.920Z,9.37
2023-02-11T14:02:55.045Z,9.32
2023-02-11T14:06:38.599Z,9.08
2023-02-11T14:10:02.424Z,8.85
2023-02-11T14:13:31.565Z,8.99
2023-02-11T14:17:02.310Z,8.57
2023-02-11T14:20:43.321Z,8.72
2023-02-11T14:24:05.032Z,8.72
2023-02-11T14:27:41.720Z,8.74
2023-02-11T14:31:10.627Z,8.72
2023-02-11T14:35:09.779Z,8.54
2023-02-11T14:38:52.944Z,8.59
2023-02-11T14:42:25.476Z,8.61
2023-02-11T14:45:52.105Z,8.74
2023-02-11T14:49:36.434Z,8.57
2023-02-11T14:53:01.405Z,8.39
2023-02-11T14:56:27.939Z,8.32
2023-02-11T15:00:05.608Z,8.39
2023-02-11T15:03:32.523Z,8.23
2023-02-11T15:06:55.538Z,8.47
2023-02-11T15:10:39.620Z,8.49
2023-02-11T15:14:11.963Z,8.13
2023-02-11T15:17:36.344Z,8.19
2023-02-11T15:21:00.235Z,8.33
2023-02-11T15:24:30.892Z,8.09
2023-02-11T15:27:57.119Z,8.16
2023-02-11T15:31:23.673Z,8.13
2023-02-11T15:34:46.769Z,8.02
2023-02-11T15:38:12.768Z,8.03
2023-02-11T15:41:37.758Z,7.96
2023-02-11T15:45:11.749Z,8.10
2023-02-11T15:48:40.132Z,8.71
2023-02-11T15:52:02.917Z,9.06
2023-02-11T15:55:27.238Z,9.36
2023-02-11T15:58:52.183Z,9.22
2023-02-11T16:02:20.944Z,9.50
2023-02-11T16:05:42.437Z,9.64
2023-02-11T16:09:07.770Z,9.20
2023-02-11T16:12:30.178Z,8.81
2023-02-11T16:16:04.743Z,8.54
2023-02-11T16:19:28.131Z,8.34
2023-02-11T16:22:49.841Z,8.26
2023-02-11T16:26:37.728Z,8.12
2023-02-11T16:29:59.566Z,8.02
2023-02-11T16:33:23.439Z,7.95
2023-02-11T16:36:46.604Z,7.93
2023-02-11T16:40:09.894Z,7.51
2023-02-11T16:43:31.590Z,7.50
2023-02-11T16:46:53.739Z,7.53
2023-02-11T16:50:24.287Z,7.42
2023-02-11T16:53:45.869Z,7.42
2023-02-11T16:57:30.332Z,7.65
2023-02-11T17:00:52.818Z,7.57
2023-02-11T17:04:27.498Z,7.51
2023-02-11T17:07:49.733Z,7.68
2023-02-11T17:11:11.537Z,8.06
2023-02-11T17:14:33.077Z,8.50
2023-02-11T17:17:56.899Z,8.79
2023-02-11T17:21:18.674Z,8.89
2023-02-11T17:24:45.218Z,9.06
2023-02-11T17:28:08.316Z,9.22
2023-02-11T17:31:30.116Z,8.93
2023-02-11T17:34:53.172Z,8.51
2023-02-11T17:38:18.074Z,8.22
2023-02-11T17:41:40.735Z,7.99
2023-02-11T17:45:02.378Z,7.91
2023-02-11T17:48:24.592Z,7.82
2023-02-11T17:51:48.795Z,7.67
2023-02-11T17:55:10.480Z,7.61
2023-02-11T17:58:32.287Z,7.53
2023-02-11T18:01:56.640Z,7.44
2023-02-11T18:05:20.572Z,7.44
2023-02-11T18:08:45.136Z,7.42
2023-02-11T18:12:10.792Z,7.40
2023-02-11T18:15:33.591Z,7.31
2023-02-11T18:19:00.958Z,7.05
2023-02-11T18:22:23.168Z,6.98
2023-02-11T18:25:47.059Z,6.99
2023-02-11T18:29:13.369Z,7.38
2023-02-11T18:32:37.492Z,7.84
2023-02-11T18:36:06.934Z,8.26
2023-02-11T18:39:31.329Z,8.65
2023-02-11T18:42:55.673Z,8.91
2023-02-11T18:46:20.424Z,8.93
2023-02-11T18:49:41.997Z,8.33
2023-02-11T18:53:03.603Z,8.02
2023-02-11T18:56:27.844Z,7.67
2023-02-11T18:59:50.713Z,7.47
2023-02-11T19:03:12.364Z,7.23
2023-02-11T19:06:36.588Z,7.43
2023-02-11T19:09:58.759Z,7.34
2023-02-11T19:13:20.396Z,7.44
2023-02-11T19:16:44.201Z,7.50
2023-02-11T19:20:06.852Z,7.34
2023-02-11T19:23:28.409Z,7.40
2023-02-11T19:26:55.393Z,7.27
2023-02-11T19:30:17.113Z,7.28
2023-02-11T19:33:38.700Z,7.38
2023-02-11T19:37:01.686Z,7.40
2023-02-11T19:40:26.082Z,7.43
2023-02-11T19:43:53.019Z,7.40
2023-02-11T19:47:14.815Z,7.36
2023-02-11T19:50:36.348Z,7.38
2023-02-11T19:53:58.602Z,7.37
2023-02-11T19:57:20.178Z,7.34
2023-02-11T20:00:44.250Z,6.92
2023-02-11T20:04:08.655Z,6.88
2023-02-11T20:07:32.760Z,7.09
2023-02-11T20:10:54.341Z,7.02
2023-02-11T20:14:16.107Z,6.99
2023-02-11T20:17:37.674Z,7.05
2023-02-11T20:21:01.737Z,6.78
2023-02-11T20:24:26.124Z,6.78
2023-02-11T20:27:47.707Z,6.75
2023-02-11T20:31:11.085Z,6.98
2023-02-11T20:34:33.209Z,6.91
2023-02-11T20:37:54.783Z,6.82
2023-02-11T20:41:25.448Z,6.65
2023-02-11T20:44:47.059Z,6.57
2023-02-11T20:48:08.727Z,6.74
2023-02-11T20:51:33.975Z,6.82
2023-02-11T20:54:57.778Z,6.71
2023-02-11T20:58:19.345Z,6.33
2023-02-11T21:01:44.490Z,6.36
2023-02-11T21:05:06.469Z,6.61
2023-02-11T21:08:28.112Z,6.50
2023-02-11T21:11:51.722Z,6.51
2023-02-11T21:15:15.906Z,6.51
2023-02-11T21:18:37.769Z,6.48
2023-02-11T21:22:00.959Z,6.59
2023-02-11T21:25:24.945Z,6.68
2023-02-11T21:28:46.645Z,6.47
2023-02-11T21:32:11.048Z,6.41
2023-02-11T21:35:37.273Z,6.50
2023-02-11T21:39:00.112Z,6.50
2023-02-11T21:42:24.070Z,6.42
2023-02-11T21:45:49.853Z,6.71
2023-02-11T21:49:11.500Z,6.69
2023-02-11T21:52:36.548Z,6.31
2023-02-11T21:56:10.112Z,6.42
2023-02-11T21:59:31.945Z,6.58
2023-02-11T22:02:53.657Z,6.33
2023-02-11T22:06:18.408Z,6.11
2023-02-11T22:09:43.061Z,6.29
2023-02-11T22:13:04.873Z,6.44
2023-02-11T22:16:27.489Z,6.31
2023-02-11T22:19:56.700Z,6.50
2023-02-11T22:23:18.286Z,6.11
2023-02-11T22:26:39.906Z,6.07
2023-02-11T22:30:02.700Z,6.19
2023-02-11T22:33:25.529Z,6.29
2023-02-11T22:36:47.413Z,6.17
2023-02-11T22:40:09.355Z,6.16
2023-02-11T22:43:31.400Z,5.78
2023-02-11T22:46:53.733Z,5.55
2023-02-11T22:50:17.587Z,5.73
2023-02-11T22:53:39.547Z,5.82
2023-02-11T22:57:01.301Z,5.73
2023-02-11T23:00:30.778Z,5.59
2023-02-11T23:03:54.683Z,5.58
2023-02-11T23:07:16.617Z,5.52
2023-02-11T23:10:41.925Z,5.65
2023-02-11T23:14:03.987Z,5.71
2023-02-11T23:17:26.242Z,5.68
2023-02-11T23:20:47.906Z,5.73
2023-02-11T23:24:16.807Z,5.81
2023-02-11T23:27:40.829Z,5.73
2023-02-11T23:31:15.278Z,5.85
2023-02-11T23:34:39.157Z,5.55
2023-02-11T23:38:00.838Z,5.61
2023-02-11T23:41:25.376Z,5.68
2023-02-11T23:44:49.585Z,5.83
2023-02-11T23:48:13.713Z,5.82
2023-02-11T23:51:35.436Z,5.81
2023-02-11T23:54:57.009Z,5.51
2023-02-11T23:58:20.877Z,5.58
